createdAt,value
2018-09-05T00:02:21.271Z,17.45
2018-09-05T00:04:55.974Z,16.95
2018-09-05T00:07:30.775Z,16.90
2018-09-05T00:10:05.665Z,15.65
2018-09-05T00:12:40.406Z,13.88
2018-09-05T00:15:15.139Z,14.90
2018-09-05T00:17:49.883Z,14.85
2018-09-05T00:20:24.587Z,15.20
2018-09-05T00:22:59.349Z,15.20
2018-09-05T00:25:34.100Z,14.83
2018-09-05T00:28:08.877Z,15.78
2018-09-05T00:30:43.640Z,15.00
2018-09-05T00:33:18.398Z,14.63
2018-09-05T00:35:53.123Z,14.20
2018-09-05T00:38:27.857Z,16.07
2018-09-05T00:41:03.718Z,16.30
2018-09-05T00:43:39.520Z,16.27
2018-09-05T00:46:14.228Z,16.00
2018-09-05T00:48:50.222Z,14.63
2018-09-05T00:51:26.009Z,16.00
2018-09-05T00:54:00.942Z,14.13
2018-09-05T00:56:35.682Z,13.85
2018-09-05T00:59:10.429Z,14.13
2018-09-05T01:01:45.157Z,14.85
2018-09-05T01:04:19.882Z,18.27
2018-09-05T01:06:54.685Z,17.25
2018-09-05T01:09:30.503Z,18.82
2018-09-05T01:12:05.244Z,21.25
2018-09-05T01:14:39.982Z,21.00
2018-09-05T01:17:14.682Z,21.87
2018-09-05T01:19:49.444Z,20.90
2018-09-05T01:22:24.199Z,22.27
2018-09-05T01:24:59.959Z,25.57
2018-09-05T01:27:34.663Z,23.83
2018-09-05T01:30:09.481Z,21.93
2018-09-05T01:32:44.310Z,22.85
2018-09-05T01:35:19.094Z,20.27
2018-09-05T01:37:53.902Z,20.37
2018-09-05T01:40:28.075Z,20.10
2018-09-05T01:43:02.244Z,19.30
2018-09-05T01:45:37.340Z,22.35
2018-09-05T01:48:12.536Z,22.90
2018-09-05T01:50:47.268Z,21.87
2018-09-05T01:53:21.999Z,20.97
2018-09-05T01:55:57.804Z,21.10
2018-09-05T01:58:32.094Z,19.82
2018-09-05T02:01:06.298Z,21.47
2018-09-05T02:03:41.067Z,20.00
2018-09-05T02:06:16.811Z,18.92
2018-09-05T02:08:52.558Z,16.93
2018-09-05T02:11:26.737Z,18.47
2018-09-05T02:14:00.927Z,18.87
2018-09-05T02:16:35.085Z,17.98
2018-09-05T02:19:09.319Z,18.80
2018-09-05T02:21:43.468Z,20.92
2018-09-05T02:24:18.200Z,21.00
2018-09-05T02:26:52.367Z,20.53
2018-09-05T02:29:27.547Z,19.93
2018-09-05T02:32:01.808Z,21.30
2018-09-05T02:34:36.566Z,20.08
2018-09-05T02:37:11.283Z,18.80
2018-09-05T02:39:45.527Z,18.43
2018-09-05T02:44:12.645Z,19.07
2018-09-05T02:46:47.387Z,17.15
2018-09-05T02:49:21.600Z,15.97
2018-09-05T02:51:55.756Z,15.50
2018-09-05T02:54:29.923Z,15.37
2018-09-05T02:57:04.049Z,15.40
2018-09-05T02:59:39.332Z,16.03
2018-09-05T03:02:14.035Z,14.63
2018-09-05T03:04:48.256Z,14.30
2018-09-05T03:07:22.374Z,12.98
2018-09-05T03:09:56.531Z,13.50
2018-09-05T03:12:31.666Z,12.87
2018-09-05T03:15:05.897Z,12.20
2018-09-05T03:17:40.003Z,13.93
2018-09-05T03:20:15.231Z,15.13
2018-09-05T03:22:49.380Z,15.63
2018-09-05T03:25:24.573Z,16.70
2018-09-05T03:27:58.690Z,15.15
2018-09-05T03:30:33.898Z,17.40
2018-09-05T03:33:08.927Z,17.35
2018-09-05T03:35:43.819Z,17.07
2018-09-05T03:38:25.795Z,18.48
2018-09-05T03:41:00.562Z,17.48
2018-09-05T03:43:36.307Z,15.93
2018-09-05T03:46:11.071Z,16.17
2018-09-05T03:48:45.265Z,15.43
2018-09-05T03:51:19.992Z,16.25
2018-09-05T03:53:55.719Z,16.57
2018-09-05T03:56:30.941Z,18.25
2018-09-05T03:59:05.173Z,15.97
2018-09-05T04:01:39.914Z,16.97
2018-09-05T04:04:14.615Z,17.35
2018-09-05T04:06:49.130Z,15.47
2018-09-05T04:09:23.388Z,15.83
2018-09-05T04:11:57.549Z,16.40
2018-09-05T04:14:31.886Z,14.40
2018-09-05T04:17:06.667Z,15.60
2018-09-05T04:19:40.896Z,15.47
2018-09-05T04:22:16.076Z,15.03
2018-09-05T04:24:50.279Z,14.77
2018-09-05T04:27:24.442Z,14.67
2018-09-05T04:29:58.771Z,13.63
2018-09-05T04:32:34.295Z,13.50
2018-09-05T04:35:08.567Z,12.57
2018-09-05T04:37:42.675Z,12.67
2018-09-05T04:40:17.937Z,12.73
2018-09-05T04:42:52.064Z,13.37
2018-09-05T04:45:27.404Z,13.95
2018-09-05T04:48:01.568Z,15.43
2018-09-05T04:50:36.820Z,17.07
2018-09-05T04:53:11.090Z,17.23
2018-09-05T04:55:45.786Z,16.65
2018-09-05T04:58:20.963Z,17.87
2018-09-05T05:00:55.862Z,18.02
2018-09-05T05:03:31.574Z,18.40
2018-09-05T05:06:06.445Z,24.32
2018-09-05T05:08:41.224Z,16.07
2018-09-05T05:11:17.049Z,16.48
2018-09-05T05:13:51.847Z,17.10
2018-09-05T05:16:26.189Z,14.58
2018-09-05T10:05:17.626Z,3.37
2018-09-05T10:07:57.034Z,5.80
2018-09-05T10:10:37.728Z,3.57
2018-09-05T10:13:17.543Z,3.30
2018-09-05T10:15:57.054Z,3.13
2018-09-05T10:18:33.022Z,3.20
2018-09-05T10:21:07.508Z,2.93
2018-09-05T10:23:43.076Z,2.60
2018-09-05T10:26:17.536Z,3.10
2018-09-05T10:28:52.000Z,2.83
2018-09-05T10:31:26.419Z,3.20
2018-09-05T10:34:00.857Z,3.10
2018-09-05T10:36:36.349Z,3.23
2018-09-05T10:39:11.411Z,3.53
2018-09-05T10:41:45.829Z,3.37
2018-09-05T10:44:20.329Z,2.83
2018-09-05T10:46:54.903Z,3.37
2018-09-05T10:49:29.355Z,3.30
2018-09-05T10:52:03.881Z,3.20
2018-09-05T10:54:39.401Z,3.10
2018-09-05T10:57:14.216Z,3.40
2018-09-05T10:59:48.712Z,3.40
2018-09-05T11:02:23.209Z,3.33
2018-09-05T11:04:57.713Z,3.43
2018-09-05T11:07:32.140Z,2.90
2018-09-05T11:10:06.613Z,3.30
2018-09-05T11:12:40.999Z,3.07
2018-09-05T11:15:16.507Z,2.97
2018-09-05T11:17:51.132Z,3.23
2018-09-05T11:20:25.659Z,3.27
2018-09-05T11:23:00.394Z,3.52
2018-09-05T11:25:35.240Z,3.47
2018-09-05T11:28:09.934Z,3.08
2018-09-05T11:30:44.423Z,2.87
2018-09-05T11:33:18.840Z,3.10
2018-09-05T11:35:53.334Z,2.80
2018-09-05T11:38:27.803Z,2.87
2018-09-05T11:41:02.291Z,3.00
2018-09-05T11:43:36.819Z,2.97
2018-09-05T11:46:11.251Z,2.67
2018-09-05T11:48:46.044Z,2.65
2018-09-05T11:51:20.560Z,2.80
2018-09-05T11:53:55.246Z,4.45
2018-09-05T11:56:29.706Z,3.47
2018-09-05T11:59:04.447Z,2.90
2018-09-05T12:01:38.956Z,4.70
2018-09-05T12:04:13.399Z,2.50
2018-09-05T12:06:48.273Z,2.58
2018-09-05T12:09:23.700Z,3.00
2018-09-05T12:11:58.444Z,3.05
2018-09-05T12:14:33.156Z,2.87
2018-09-05T12:17:07.992Z,2.90
2018-09-05T12:19:42.965Z,3.10
2018-09-05T12:22:18.714Z,3.05
2018-09-05T12:24:54.443Z,3.20
2018-09-05T12:27:30.271Z,3.12
2018-09-05T12:30:05.112Z,2.60
2018-09-05T12:32:39.856Z,2.85
2018-09-05T12:35:14.601Z,2.50
2018-09-05T12:37:49.338Z,2.95
2018-09-05T12:40:24.108Z,2.60
2018-09-05T12:42:58.858Z,2.67
2018-09-05T12:45:33.591Z,2.42
2018-09-05T12:48:08.423Z,2.72
2018-09-05T12:50:43.162Z,2.80
2018-09-05T12:53:17.868Z,3.00
2018-09-05T12:55:53.674Z,2.50
2018-09-05T12:58:28.364Z,2.52
2018-09-05T13:01:04.172Z,2.80
2018-09-05T13:03:39.168Z,2.83
2018-09-05T13:06:13.862Z,2.80
2018-09-05T13:08:49.637Z,3.85
2018-09-05T13:11:24.458Z,2.77
2018-09-05T13:13:59.373Z,2.80
2018-09-05T13:16:34.140Z,2.87
2018-09-05T13:19:08.881Z,2.77
2018-09-05T13:21:43.628Z,2.60
2018-09-05T13:24:18.445Z,3.08
2018-09-05T13:26:53.347Z,2.80
2018-09-05T13:29:28.230Z,2.50
2018-09-05T13:32:04.033Z,3.12
2018-09-05T13:34:38.700Z,3.08
2018-09-05T13:37:13.488Z,2.55
2018-09-05T13:39:49.241Z,2.75
2018-09-05T13:42:24.994Z,2.50
2018-09-05T13:44:59.771Z,2.75
2018-09-05T13:47:34.574Z,3.67
2018-09-05T13:50:09.336Z,3.17
2018-09-05T13:52:44.102Z,3.20
2018-09-05T13:55:18.808Z,2.65
2018-09-05T13:57:54.521Z,2.72
2018-09-05T14:00:29.243Z,2.52
2018-09-05T14:03:03.980Z,2.85
2018-09-05T14:05:38.712Z,2.85
2018-09-05T14:08:13.426Z,4.20
2018-09-05T14:10:48.168Z,2.95
2018-09-05T14:13:22.975Z,2.85
2018-09-05T14:18:36.178Z,2.67
2018-09-05T14:21:10.894Z,3.10
2018-09-05T14:23:45.809Z,2.70
2018-09-05T14:26:20.523Z,2.83
2018-09-05T14:28:55.319Z,2.62
2018-09-05T14:31:30.119Z,2.45
2018-09-05T14:34:05.022Z,2.50
2018-09-05T14:36:39.800Z,2.85
2018-09-05T14:39:14.793Z,3.22
2018-09-05T14:41:49.597Z,2.35
2018-09-05T14:44:24.352Z,3.00
2018-09-05T14:46:59.086Z,2.90
2018-09-05T14:49:33.843Z,3.27
2018-09-05T14:52:08.707Z,2.42
2018-09-05T14:54:43.463Z,3.67
2018-09-05T14:57:18.308Z,2.95
2018-09-05T14:59:53.084Z,3.37
2018-09-05T15:02:27.956Z,2.92
2018-09-05T15:05:02.679Z,2.83
2018-09-05T15:07:37.445Z,3.27
2018-09-05T15:10:13.180Z,2.95
2018-09-05T15:12:47.973Z,2.83
2018-09-05T15:15:22.961Z,2.85
2018-09-05T15:17:57.710Z,3.08
2018-09-05T15:20:33.445Z,3.17
2018-09-05T15:23:08.205Z,2.87
2018-09-05T15:25:43.525Z,2.77
2018-09-05T15:28:18.261Z,2.80
2018-09-05T15:30:52.983Z,2.85
2018-09-05T15:33:27.782Z,2.70
2018-09-05T15:36:03.565Z,3.02
2018-09-05T15:38:39.411Z,3.15
2018-09-05T15:41:14.130Z,2.80
2018-09-05T15:43:48.900Z,2.83
2018-09-05T15:46:23.653Z,2.45
2018-09-05T15:48:58.473Z,2.67
2018-09-05T15:51:33.236Z,2.90
2018-09-05T15:54:07.999Z,7.17
2018-09-05T15:56:42.746Z,10.18
2018-09-05T15:59:17.442Z,5.30
2018-09-05T16:01:54.405Z,8.68
2018-09-05T16:04:29.118Z,5.08
2018-09-05T16:07:04.207Z,7.05
2018-09-05T16:09:39.924Z,5.42
2018-09-05T16:12:15.724Z,7.37
2018-09-05T16:14:50.516Z,4.62
2018-09-05T16:17:25.248Z,3.85
2018-09-05T16:19:59.953Z,3.27
2018-09-05T16:22:35.776Z,3.58
2018-09-05T16:25:11.540Z,3.55
2018-09-05T16:27:46.344Z,3.40
2018-09-05T16:30:22.060Z,3.27
2018-09-05T16:32:56.861Z,3.60
2018-09-05T16:35:32.604Z,3.30
2018-09-05T16:38:07.625Z,3.90
2018-09-05T16:40:42.347Z,3.33
2018-09-05T16:43:17.136Z,3.40
2018-09-05T16:45:51.867Z,3.10
2018-09-05T16:48:28.635Z,3.20
2018-09-05T16:51:03.543Z,3.20
